createdAt,value
2019-05-10T00:00:44.244Z,95.26
2019-05-10T00:03:30.522Z,95.19
2019-05-10T00:06:17.060Z,95.80
2019-05-10T00:08:47.679Z,96.19
2019-05-10T00:11:36.952Z,96.83
2019-05-10T00:14:24.258Z,95.06
2019-05-10T00:16:54.335Z,95.47
2019-05-10T00:19:22.718Z,95.64
2019-05-10T00:21:51.160Z,96.20
2019-05-10T00:24:19.612Z,96.77
2019-05-10T00:26:48.010Z,97.01
2019-05-10T00:29:16.522Z,97.08
2019-05-10T00:31:44.916Z,97.21
2019-05-10T00:34:13.376Z,97.46
2019-05-10T00:36:41.818Z,97.24
2019-05-10T00:39:10.222Z,96.93
2019-05-10T00:41:38.619Z,96.99
2019-05-10T00:44:07.170Z,97.43
2019-05-10T00:46:35.653Z,97.31
2019-05-10T00:49:04.137Z,97.07
2019-05-10T00:51:32.567Z,97.15
2019-05-10T00:54:00.979Z,97.12
2019-05-10T00:56:29.387Z,97.79
2019-05-10T00:58:57.788Z,97.72
2019-05-10T01:01:26.299Z,97.76
2019-05-10T01:03:54.713Z,98.05
2019-05-10T01:06:23.121Z,98.17
2019-05-10T01:08:51.532Z,97.90
2019-05-10T01:11:19.951Z,97.94
2019-05-10T01:13:48.432Z,97.89
2019-05-10T01:16:16.919Z,97.54
2019-05-10T01:18:45.394Z,98.02
2019-05-10T01:21:13.915Z,98.11
2019-05-10T01:23:42.301Z,97.89
2019-05-10T01:26:10.723Z,97.96
2019-05-10T01:28:39.116Z,98.01
2019-05-10T01:31:07.532Z,97.77
2019-05-10T01:33:36.025Z,97.48
2019-05-10T01:36:04.504Z,97.42
2019-05-10T01:38:32.921Z,97.70
2019-05-10T01:41:01.402Z,97.47
2019-05-10T01:43:29.802Z,97.82
2019-05-10T01:45:58.291Z,97.47
2019-05-10T01:48:26.708Z,97.72
2019-05-10T01:50:55.120Z,97.87
2019-05-10T01:53:23.517Z,98.03
2019-05-10T01:55:53.066Z,97.90
2019-05-10T01:58:21.635Z,97.63
2019-05-10T02:00:50.064Z,97.55
2019-05-10T02:03:18.474Z,97.22
2019-05-10T02:05:46.879Z,97.59
2019-05-10T02:08:15.500Z,97.78
2019-05-10T02:10:43.918Z,97.57
2019-05-10T02:13:12.341Z,97.43
2019-05-10T02:15:40.771Z,97.87
2019-05-10T02:18:09.179Z,97.86
2019-05-10T02:20:37.574Z,98.00
2019-05-10T02:23:05.987Z,97.74
2019-05-10T02:25:34.417Z,97.36
2019-05-10T02:28:02.809Z,96.70
2019-05-10T02:30:31.226Z,96.51
2019-05-10T02:32:59.704Z,97.36
2019-05-10T02:35:28.100Z,97.40
2019-05-10T02:37:56.542Z,97.30
2019-05-10T02:40:25.027Z,96.59
2019-05-10T02:42:53.461Z,96.42
2019-05-10T02:45:21.995Z,96.96
2019-05-10T02:47:50.445Z,96.54
2019-05-10T02:50:19.031Z,96.53
2019-05-10T02:52:47.460Z,96.93
2019-05-10T02:55:15.939Z,96.60
2019-05-10T02:57:45.177Z,95.64
2019-05-10T03:00:14.328Z,96.08
2019-05-10T03:02:44.459Z,96.03
2019-05-10T03:05:13.000Z,96.34
2019-05-10T03:07:41.507Z,96.48
2019-05-10T03:10:11.878Z,95.46
2019-05-10T03:12:41.803Z,95.88
2019-05-10T03:15:12.250Z,95.74
2019-05-10T03:17:41.559Z,96.00
2019-05-10T03:20:10.593Z,95.45
2019-05-10T03:22:44.027Z,94.01
2019-05-10T03:25:14.899Z,94.57
2019-05-10T03:27:43.539Z,93.77
2019-05-10T03:30:12.446Z,93.16
2019-05-10T03:32:40.815Z,92.94
2019-05-10T03:35:10.378Z,93.60
2019-05-10T03:37:38.909Z,93.60
2019-05-10T03:40:08.555Z,93.06
2019-05-10T03:42:37.202Z,94.01
2019-05-10T03:45:07.225Z,93.68
2019-05-10T03:47:35.781Z,94.09
2019-05-10T03:50:07.084Z,94.35
2019-05-10T03:52:35.527Z,94.71
2019-05-10T03:55:04.793Z,95.15
2019-05-10T03:57:33.251Z,95.48
2019-05-10T04:00:01.735Z,95.70
2019-05-10T04:02:30.135Z,96.09
2019-05-10T04:04:58.546Z,96.12
2019-05-10T04:07:26.967Z,96.57
2019-05-10T04:09:55.372Z,96.37
2019-05-10T04:12:23.774Z,96.87
2019-05-10T04:14:52.251Z,96.49
2019-05-10T04:17:20.649Z,97.20
2019-05-10T04:19:49.081Z,97.50
2019-05-10T04:22:17.468Z,97.72
2019-05-10T04:24:45.863Z,97.49
2019-05-10T04:27:30.770Z,97.81
2019-05-10T04:29:44.401Z,97.97
2019-05-10T04:32:12.888Z,98.27
2019-05-10T04:34:41.316Z,98.39
2019-05-10T04:37:09.791Z,98.69
2019-05-10T04:39:38.209Z,98.79
2019-05-10T04:42:06.605Z,99.25
2019-05-10T04:44:35.045Z,99.27
2019-05-10T04:47:03.496Z,99.38
2019-05-10T04:49:31.905Z,99.38
2019-05-10T04:52:00.329Z,99.76
2019-05-10T04:54:28.739Z,99.36
2019-05-10T04:57:00.064Z,99.63
2019-05-10T04:59:27.278Z,99.87
2019-05-10T05:01:55.706Z,99.78
2019-05-10T05:04:24.221Z,100.00
2019-05-10T05:06:52.642Z,100.00
2019-05-10T05:09:21.052Z,100.00
2019-05-10T05:11:49.475Z,100.00
2019-05-10T05:14:17.881Z,100.00
2019-05-10T05:16:46.350Z,100.00
2019-05-10T05:19:14.859Z,100.00
2019-05-10T05:21:43.324Z,100.00
2019-05-10T05:24:17.193Z,100.00
2019-05-10T05:26:41.925Z,100.00
2019-05-10T05:29:10.392Z,100.00
2019-05-10T05:31:38.845Z,100.00
2019-05-10T05:34:07.415Z,100.00
2019-05-10T05:36:35.851Z,100.00
2019-05-10T05:39:05.764Z,100.00
2019-05-10T05:41:47.690Z,100.00
2019-05-10T05:44:04.390Z,100.00
2019-05-10T05:46:32.800Z,100.00
2019-05-10T05:49:01.210Z,100.00
2019-05-10T05:51:29.651Z,100.00
2019-05-10T05:53:58.078Z,100.00
2019-05-10T05:56:26.485Z,100.00
2019-05-10T05:58:54.973Z,100.00
2019-05-10T06:01:29.081Z,100.00
2019-05-10T06:03:53.511Z,100.00
2019-05-10T06:06:23.505Z,100.00
2019-05-10T06:08:54.596Z,100.00
2019-05-10T06:11:22.449Z,100.00
2019-05-10T06:13:50.940Z,100.00
2019-05-10T06:16:22.209Z,100.00
2019-05-10T06:18:49.616Z,100.00
2019-05-10T06:21:24.852Z,100.00
2019-05-10T06:23:48.236Z,100.00
2019-05-10T06:26:26.228Z,100.00
2019-05-10T06:29:04.532Z,100.00
2019-05-10T06:31:17.171Z,100.00
2019-05-10T06:33:46.854Z,100.00
2019-05-10T06:36:15.445Z,100.00
2019-05-10T06:38:43.880Z,100.00
2019-05-10T06:41:16.923Z,100.00
2019-05-10T06:43:45.719Z,100.00
2019-05-10T06:46:12.581Z,100.00
2019-05-10T06:48:40.973Z,100.00
2019-05-10T06:51:12.318Z,100.00
2019-05-10T06:53:42.190Z,100.00
2019-05-10T06:56:09.745Z,100.00
2019-05-10T06:58:38.512Z,100.00
2019-05-10T07:01:07.036Z,100.00
2019-05-10T07:03:35.549Z,100.00
2019-05-10T07:06:04.198Z,100.00
2019-05-10T07:08:43.768Z,100.00
2019-05-10T07:11:02.777Z,100.00
2019-05-10T07:13:31.227Z,100.00
2019-05-10T07:15:59.638Z,100.00
2019-05-10T07:18:28.112Z,100.00
2019-05-10T07:21:00.777Z,100.00
2019-05-10T07:23:29.951Z,100.00
2019-05-10T07:25:56.945Z,100.00
2019-05-10T07:28:25.351Z,100.00
2019-05-10T07:30:53.791Z,100.00
2019-05-10T07:33:22.281Z,100.00
2019-05-10T07:35:50.689Z,100.00
2019-05-10T07:38:23.480Z,100.00
2019-05-10T07:40:49.405Z,100.00
2019-05-10T07:43:24.981Z,100.00
2019-05-10T07:45:48.089Z,100.00
2019-05-10T07:48:16.522Z,100.00
2019-05-10T07:50:49.809Z,100.00
2019-05-10T07:53:16.206Z,100.00
2019-05-10T07:55:45.327Z,100.00
2019-05-10T07:58:13.734Z,100.00
2019-05-10T08:00:44.630Z,100.00
2019-05-10T08:03:16.771Z,100.00
2019-05-10T08:05:46.243Z,100.00
2019-05-10T08:08:12.782Z,100.00
2019-05-10T08:10:41.193Z,100.00
2019-05-10T08:13:09.690Z,100.00
2019-05-10T08:15:38.581Z,100.00
2019-05-10T08:18:09.873Z,99.91
2019-05-10T08:20:49.307Z,100.00
2019-05-10T08:23:08.313Z,99.89
2019-05-10T08:25:43.983Z,100.00
2019-05-10T08:28:08.372Z,99.38
2019-05-10T08:30:51.915Z,99.70
2019-05-10T08:33:14.028Z,99.20
2019-05-10T08:35:45.860Z,99.58
2019-05-10T08:38:12.988Z,98.40
2019-05-10T08:40:42.796Z,98.62
2019-05-10T08:43:16.183Z,98.50
2019-05-10T08:45:44.946Z,97.59
2019-05-10T08:48:12.754Z,97.18
2019-05-10T08:50:53.340Z,97.68
2019-05-10T08:53:16.380Z,97.11
2019-05-10T08:55:43.254Z,97.48
2019-05-10T08:58:12.502Z,96.14
2019-05-10T09:00:54.273Z,96.59
2019-05-10T09:03:18.005Z,96.44
2019-05-10T09:05:43.261Z,94.83
2019-05-10T09:08:20.127Z,93.03
2019-05-10T09:10:42.760Z,93.52
2019-05-10T09:13:12.850Z,92.74
2019-05-10T09:15:51.312Z,93.89
2019-05-10T09:18:12.818Z,94.26
2019-05-10T09:20:42.093Z,94.38
2019-05-10T09:23:17.868Z,95.21
2019-05-10T09:25:42.637Z,95.24
2019-05-10T09:28:16.672Z,95.20
2019-05-10T09:30:56.265Z,95.84
2019-05-10T09:33:15.058Z,96.49
2019-05-10T09:35:51.248Z,96.28
2019-05-10T09:38:13.840Z,96.36
2019-05-10T09:40:50.663Z,97.06
2019-05-10T09:43:14.987Z,97.64
2019-05-10T09:45:42.801Z,97.88
2019-05-10T09:48:12.142Z,97.75
2019-05-10T09:50:46.367Z,97.78
2019-05-10T09:53:13.616Z,98.02
2019-05-10T09:55:45.458Z,96.52
2019-05-10T09:58:11.262Z,96.65
2019-05-10T10:00:39.735Z,97.13
2019-05-10T10:03:08.547Z,97.54
2019-05-10T10:05:39.778Z,97.20
2019-05-10T10:08:09.025Z,96.61
2019-05-10T10:10:37.365Z,96.81
2019-05-10T10:13:13.633Z,95.31
2019-05-10T10:15:37.350Z,94.17
2019-05-10T10:18:06.422Z,93.00
2019-05-10T10:20:40.667Z,92.80
2019-05-10T10:23:07.361Z,94.62
2019-05-10T10:25:40.814Z,94.56
2019-05-10T10:28:10.420Z,94.26
2019-05-10T10:30:37.368Z,94.51
2019-05-10T10:33:11.881Z,94.59
2019-05-10T10:35:37.820Z,93.91
2019-05-10T10:38:08.045Z,94.85
2019-05-10T10:40:44.197Z,94.37
2019-05-10T10:43:07.564Z,93.54
2019-05-10T10:45:37.738Z,93.16
2019-05-10T10:48:10.657Z,92.59
2019-05-10T10:50:36.817Z,93.10
2019-05-10T10:53:07.786Z,93.94
2019-05-10T10:55:37.802Z,93.71
2019-05-10T10:58:07.353Z,92.43
2019-05-10T11:00:38.867Z,93.49
2019-05-10T11:03:06.889Z,92.58
2019-05-10T11:05:35.359Z,92.24
2019-05-10T11:08:03.798Z,91.74
2019-05-10T11:10:32.691Z,91.27
2019-05-10T11:13:07.964Z,92.68
2019-05-10T11:15:35.824Z,92.06
2019-05-10T11:18:01.808Z,90.94
2019-05-10T11:20:31.817Z,90.91
2019-05-10T11:23:00.551Z,90.98
2019-05-10T11:25:29.076Z,89.49
2019-05-10T11:27:59.302Z,90.81
2019-05-10T11:30:27.833Z,90.68
2019-05-10T11:32:56.318Z,89.30
2019-05-10T11:35:30.509Z,90.86
2019-05-10T11:37:55.034Z,90.04
2019-05-10T11:40:30.652Z,91.37
2019-05-10T11:42:53.769Z,91.59
2019-05-10T11:45:26.129Z,90.29
2019-05-10T11:47:54.491Z,89.92
2019-05-10T11:50:31.320Z,90.16
2019-05-10T11:52:53.065Z,91.67
2019-05-10T11:58:01.905Z,92.93
2019-05-10T12:00:29.171Z,91.88
2019-05-10T12:03:07.431Z,93.03
2019-05-10T12:05:26.290Z,91.70
2019-05-10T12:07:54.753Z,92.81
2019-05-10T12:10:25.708Z,90.12
2019-05-10T12:13:06.041Z,88.57
2019-05-10T12:17:59.325Z,88.98
2019-05-10T12:20:38.979Z,90.36
2019-05-10T12:22:54.497Z,89.48
2019-05-10T12:25:42.693Z,89.70
2019-05-10T12:26:04.742Z,92.58
2019-05-10T12:26:05.332Z,89.69
2019-05-10T12:27:53.111Z,91.27
2019-05-10T12:30:21.849Z,89.36
2019-05-10T12:33:05.860Z,86.28
2019-05-10T12:35:21.446Z,87.20
2019-05-10T12:37:54.046Z,86.02
2019-05-10T12:40:23.842Z,87.47
2019-05-10T12:42:50.546Z,87.43
2019-05-10T12:45:23.038Z,87.12
2019-05-10T12:47:51.716Z,88.78
2019-05-10T12:50:20.506Z,82.89
2019-05-10T12:53:02.683Z,81.76
2019-05-10T12:55:19.059Z,80.58
2019-05-10T12:57:47.463Z,79.99
2019-05-10T13:00:17.508Z,78.20
2019-05-10T13:02:51.465Z,70.97
2019-05-10T13:05:16.325Z,71.01
2019-05-10T13:07:44.934Z,72.09
2019-05-10T13:10:14.782Z,66.21
2019-05-10T13:12:46.874Z,66.42
2019-05-10T13:15:13.717Z,66.86
2019-05-10T13:17:50.401Z,67.11
2019-05-10T13:20:13.299Z,67.63
2019-05-10T13:22:41.678Z,62.32
2019-05-10T13:25:10.660Z,68.10
2019-05-10T13:27:39.191Z,60.80
2019-05-10T13:30:08.552Z,66.75
2019-05-10T13:32:37.056Z,64.82
2019-05-10T13:35:06.795Z,64.55
2019-05-10T13:37:35.216Z,68.69
2019-05-10T13:40:06.124Z,67.26
2019-05-10T13:42:36.488Z,70.25
2019-05-10T13:45:06.362Z,69.12
2019-05-10T13:47:34.869Z,68.28
2019-05-10T13:50:03.867Z,67.29
2019-05-10T13:52:37.857Z,66.29
2019-05-10T13:55:02.404Z,67.92
2019-05-10T13:57:30.923Z,64.22
2019-05-10T14:00:02.279Z,69.67
2019-05-10T14:02:33.073Z,64.13
2019-05-10T14:04:59.767Z,66.41
2019-05-10T14:07:28.173Z,68.23
2019-05-10T14:09:56.630Z,67.89
2019-05-10T14:12:25.750Z,62.49
2019-05-10T14:14:55.446Z,62.80
2019-05-10T14:17:24.491Z,66.59
2019-05-10T14:19:52.946Z,64.62
2019-05-10T14:22:21.386Z,64.76
2019-05-10T14:24:52.800Z,64.12
2019-05-10T14:27:19.952Z,62.74
2019-05-10T14:29:48.374Z,62.32
2019-05-10T14:32:16.852Z,63.91
2019-05-10T14:34:46.351Z,65.41
2019-05-10T14:37:19.703Z,63.64
2019-05-10T14:39:45.079Z,64.95
2019-05-10T14:42:13.541Z,66.44
2019-05-10T14:44:42.081Z,68.61
2019-05-10T14:47:11.267Z,68.45
2019-05-10T14:49:42.097Z,67.03
2019-05-10T14:52:09.980Z,69.03
2019-05-10T14:54:43.544Z,70.16
2019-05-10T14:57:08.536Z,69.30
2019-05-10T14:59:37.023Z,70.17
2019-05-10T15:02:05.592Z,68.96
2019-05-10T15:04:49.449Z,71.11
2019-05-10T15:07:08.724Z,69.70
2019-05-10T15:09:34.493Z,70.07
2019-05-10T15:12:03.067Z,67.11
2019-05-10T15:14:31.487Z,66.89
2019-05-10T15:16:59.934Z,69.73
2019-05-10T15:19:31.231Z,66.12
2019-05-10T15:21:58.542Z,67.96
2019-05-10T15:24:27.024Z,68.85
2019-05-10T15:26:55.529Z,70.79
2019-05-10T15:29:24.744Z,69.61
2019-05-10T15:31:53.423Z,72.47
2019-05-10T15:34:21.939Z,68.07
2019-05-10T15:36:50.340Z,67.91
2019-05-10T15:39:23.123Z,68.46
2019-05-10T15:41:53.698Z,70.98
2019-05-10T15:44:19.037Z,69.74
2019-05-10T15:46:47.450Z,68.75
2019-05-10T15:49:22.667Z,68.04
2019-05-10T15:51:49.111Z,70.42
2019-05-10T15:54:16.311Z,66.95
2019-05-10T15:56:44.878Z,67.04
2019-05-10T15:59:19.132Z,67.30
2019-05-10T16:01:45.631Z,66.43
2019-05-10T16:04:13.672Z,69.03
2019-05-10T16:06:42.111Z,68.18
2019-05-10T16:09:17.579Z,69.77
2019-05-10T16:11:40.941Z,72.21
2019-05-10T16:14:09.366Z,73.89
2019-05-10T16:16:39.762Z,71.98
2019-05-10T16:19:12.923Z,71.94
2019-05-10T16:21:38.128Z,72.43
2019-05-10T16:24:06.790Z,71.68
2019-05-10T16:26:35.196Z,71.88
2019-05-10T16:29:03.676Z,74.02
2019-05-10T16:31:32.197Z,74.92
2019-05-10T16:34:00.676Z,75.84
2019-05-10T16:36:30.163Z,76.95
2019-05-10T16:39:01.712Z,79.87
2019-05-10T16:41:30.014Z,80.05
2019-05-10T16:44:00.185Z,79.86
2019-05-10T16:46:28.748Z,79.05
2019-05-10T16:48:57.188Z,80.67
2019-05-10T16:51:25.610Z,82.32
2019-05-10T16:53:54.033Z,81.08
2019-05-10T16:56:22.460Z,80.92
2019-05-10T16:58:53.009Z,78.89
2019-05-10T17:01:25.346Z,78.70
2019-05-10T17:03:59.849Z,81.08
2019-05-10T17:06:24.241Z,80.96
2019-05-10T17:08:52.691Z,76.77
2019-05-10T17:11:21.085Z,77.09
2019-05-10T17:13:49.508Z,78.17
2019-05-10T17:16:18.881Z,76.56
2019-05-10T17:18:49.948Z,76.93
2019-05-10T17:21:17.808Z,76.29
2019-05-10T17:23:46.738Z,75.71
2019-05-10T17:26:16.428Z,76.63
2019-05-10T17:28:44.866Z,77.90
2019-05-10T17:31:13.284Z,77.24
2019-05-10T17:33:42.665Z,78.31
2019-05-10T17:36:14.545Z,77.98
2019-05-10T17:38:47.275Z,78.29
2019-05-10T17:41:12.663Z,78.58
2019-05-10T17:43:41.135Z,78.53
2019-05-10T17:46:12.805Z,78.10
2019-05-10T17:48:40.821Z,78.63
2019-05-10T17:51:10.006Z,80.07
2019-05-10T17:53:38.397Z,78.94
2019-05-10T17:56:06.943Z,78.00
2019-05-10T17:58:35.348Z,77.21
2019-05-10T18:01:03.833Z,77.90
2019-05-10T18:03:32.284Z,79.05
2019-05-10T18:06:00.762Z,78.96
2019-05-10T18:08:29.193Z,78.70
2019-05-10T18:11:04.168Z,78.93
2019-05-10T18:13:27.774Z,78.31
2019-05-10T18:15:56.210Z,79.24
2019-05-10T18:18:24.633Z,79.98
2019-05-10T18:20:53.059Z,80.09
2019-05-10T18:23:22.971Z,79.97
2019-05-10T18:25:52.539Z,80.55
2019-05-10T18:28:21.994Z,80.26
2019-05-10T18:30:50.386Z,80.58
2019-05-10T18:33:18.932Z,81.56
2019-05-10T18:35:52.624Z,81.77
2019-05-10T18:38:17.570Z,82.27
2019-05-10T18:40:46.143Z,82.12
2019-05-10T18:43:14.725Z,82.95
2019-05-10T18:45:43.359Z,83.12
2019-05-10T18:48:11.835Z,82.57
2019-05-10T18:50:45.277Z,83.20
2019-05-10T18:53:10.462Z,83.33
2019-05-10T18:55:38.970Z,82.82
2019-05-10T18:58:07.430Z,83.78
2019-05-10T19:00:35.912Z,83.46
2019-05-10T19:03:04.421Z,83.19
2019-05-10T19:05:33.185Z,84.00
2019-05-10T19:08:05.389Z,84.46
2019-05-10T19:10:31.930Z,85.57
2019-05-10T19:13:03.828Z,85.06
2019-05-10T19:15:30.551Z,84.67
2019-05-10T19:17:58.952Z,86.89
2019-05-10T19:20:27.529Z,86.93
2019-05-10T19:22:56.049Z,85.96
2019-05-10T19:25:24.469Z,86.14
2019-05-10T19:27:53.039Z,86.11
2019-05-10T19:30:22.559Z,85.84
2019-05-10T19:32:56.062Z,86.32
2019-05-10T19:35:21.328Z,84.88
2019-05-10T19:37:49.723Z,85.91
2019-05-10T19:40:18.263Z,86.00
2019-05-10T19:42:49.404Z,87.01
2019-05-10T19:45:19.354Z,88.03
2019-05-10T19:47:49.751Z,87.88
2019-05-10T19:50:17.770Z,87.70
2019-05-10T19:52:46.193Z,87.74
2019-05-10T19:55:19.410Z,88.52
2019-05-10T19:57:49.546Z,89.29
2019-05-10T20:00:16.351Z,88.54
2019-05-10T20:02:44.913Z,87.83
2019-05-10T20:05:13.417Z,88.87
2019-05-10T20:07:45.819Z,88.45
2019-05-10T20:10:12.246Z,87.41
2019-05-10T20:12:40.677Z,88.53
2019-05-10T20:15:10.478Z,88.47
2019-05-10T20:17:39.231Z,89.67
2019-05-10T20:20:07.711Z,89.37
2019-05-10T20:22:36.543Z,88.48
2019-05-10T20:25:06.927Z,87.82
2019-05-10T20:27:35.420Z,87.90
2019-05-10T20:30:04.823Z,89.03
2019-05-10T20:32:33.319Z,89.13
2019-05-10T20:35:01.721Z,88.97
2019-05-10T20:37:30.244Z,89.46
2019-05-10T20:39:58.656Z,89.52
2019-05-10T20:42:27.187Z,89.18
2019-05-10T20:45:06.883Z,89.16
2019-05-10T20:47:25.831Z,90.37
2019-05-10T20:49:54.260Z,89.82
2019-05-10T20:52:22.828Z,89.58
2019-05-10T20:54:51.233Z,89.09
2019-05-10T20:57:19.678Z,89.73
2019-05-10T20:59:48.116Z,90.29
2019-05-10T21:02:16.607Z,90.88
2019-05-10T21:04:45.027Z,90.70
2019-05-10T21:07:13.453Z,89.89
2019-05-10T21:09:41.867Z,89.89
2019-05-10T21:12:10.374Z,89.04
2019-05-10T21:14:38.797Z,90.05
2019-05-10T21:17:07.239Z,89.79
2019-05-10T21:19:35.673Z,89.58
2019-05-10T21:22:04.081Z,90.37
2019-05-10T21:24:32.574Z,89.99
2019-05-10T21:27:00.986Z,90.49
2019-05-10T21:29:29.538Z,90.60
2019-05-10T21:31:58.000Z,90.66
2019-05-10T21:34:26.447Z,90.57
2019-05-10T21:36:54.876Z,90.73
2019-05-10T21:39:23.290Z,90.76
2019-05-10T21:41:51.738Z,90.29
2019-05-10T21:44:20.211Z,90.13
2019-05-10T21:46:48.728Z,90.43
2019-05-10T21:49:17.160Z,90.63
2019-05-10T21:51:45.668Z,90.86
2019-05-10T21:54:14.101Z,91.71
2019-05-10T21:56:42.602Z,91.54
2019-05-10T21:59:11.043Z,90.98
2019-05-10T22:01:39.589Z,91.81
2019-05-10T22:04:08.095Z,91.70
2019-05-10T22:06:36.528Z,91.86
2019-05-10T22:09:07.365Z,91.64
2019-05-10T22:11:35.865Z,91.68
2019-05-10T22:14:04.710Z,92.85
2019-05-10T22:16:33.358Z,92.99
2019-05-10T22:19:02.585Z,91.94
2019-05-10T22:21:31.263Z,91.71
2019-05-10T22:23:59.690Z,91.36
2019-05-10T22:26:28.246Z,91.25
2019-05-10T22:28:56.640Z,91.75
2019-05-10T22:31:25.072Z,91.71
2019-05-10T22:33:53.446Z,91.93
2019-05-10T22:36:21.872Z,92.61
2019-05-10T22:39:05.651Z,92.41
2019-05-10T22:41:22.096Z,92.47
2019-05-10T22:43:50.605Z,92.55
2019-05-10T22:46:19.020Z,92.01
2019-05-10T22:48:47.408Z,92.01
2019-05-10T22:51:15.859Z,92.48
2019-05-10T22:53:53.258Z,92.01
2019-05-10T22:56:14.514Z,92.63
2019-05-10T22:58:43.037Z,93.13
2019-05-10T23:01:11.444Z,92.76
2019-05-10T23:03:39.858Z,92.99
2019-05-10T23:06:08.273Z,93.55
2019-05-10T23:08:36.681Z,93.30
2019-05-10T23:11:06.888Z,92.83
2019-05-10T23:13:35.296Z,92.54
2019-05-10T23:16:03.733Z,92.63
2019-05-10T23:18:32.129Z,92.74
2019-05-10T23:21:00.588Z,92.76
2019-05-10T23:23:32.178Z,93.17
2019-05-10T23:26:02.091Z,92.86
2019-05-10T23:28:30.504Z,93.55
2019-05-10T23:30:58.910Z,93.27
2019-05-10T23:33:27.413Z,93.20
2019-05-10T23:35:55.835Z,93.44
2019-05-10T23:38:24.251Z,93.60
2019-05-10T23:40:52.749Z,93.19
2019-05-10T23:43:21.179Z,93.46
2019-05-10T23:45:49.615Z,93.42
2019-05-10T23:48:18.227Z,93.57
2019-05-10T23:50:46.633Z,93.61
2019-05-10T23:53:15.334Z,93.87
2019-05-10T23:55:43.756Z,93.69
2019-05-10T23:58:12.158Z,93.04
